-JavaCPC -demo -emu -j-cpc_ani -tools 0-9 A B C D E F G H I J K L M N O P Q R S T U V W X Y Z roms
FILEDATESIZEDLs
KTris by Richard Wilson (PD).zip 2017-04-21 16:14 2 Kb266
Kaiser (G) (19xx).zip 2017-04-21 16:13 91 Kb309
Kane & Nebulus & Renaud - Marche a l'Ombre.zip 2017-04-21 16:13 95 Kb167
Kane (UK) (1986).zip 2017-04-21 16:13 28 Kb263
Kane (UK) (1986) [a1].zip 2017-04-21 16:13 80 Kb271
Kane (UK) (1986) [a2].zip 2017-04-21 16:13 38 Kb252
Kane (UK) (1986) [t1].zip 2017-04-21 16:13 38 Kb275
Karateka (F) (1986).zip 2017-04-21 16:13 50 Kb267
Karateka (F) (1986) [f1].zip 2017-04-21 16:13 50 Kb274
Karateka (F) (1986) [t1].zip 2017-04-21 16:13 50 Kb267
Karateka (F) (1990).zip 2017-04-21 16:13 49 Kb261
Karateka (F) (1990) [t1].zip 2017-04-21 16:13 49 Kb260
Karateka (F).dsk 2017-04-21 16:13 192 Kb263
Karl's Treasure Hunt (UK) (1984).zip 2017-04-21 16:13 11 Kb262
Karl's Treasure Hunt (UK) (1984) [a1].zip 2017-04-21 16:13 84 Kb262
Karl's Treasure Hunt (UK) (1984) [a2].zip 2017-04-21 16:13 11 Kb252
Karnov (E) - Disk 1A.dsk 2017-04-21 16:13 214 Kb250
Karnov (E) - Disk 1B.dsk 2017-04-21 16:13 214 Kb248
Karnov (UK) (1988) (Disk 1 of 2).zip 2017-04-21 16:13 73 Kb235
Karnov (UK) (1988) (Disk 1 of 2) [a1].zip 2017-04-21 16:13 56 Kb232
Karnov (UK) (1988) (Disk 1 of 2) [t1].zip 2017-04-21 16:13 159 Kb243
Karnov (UK) (1988) (Disk 1 of 2) [t2].zip 2017-04-21 16:13 73 Kb229
Karnov (UK) (1988) (Disk 2 of 2).zip 2017-04-21 16:13 62 Kb239
Karnov (UK) (1988) (Disk 2 of 2) [a1].zip 2017-04-21 16:13 105 Kb239
Karnov (UK) (1988) (Disk 2 of 2) [t2].zip 2017-04-21 16:13 62 Kb270
Kat Trap (E).dsk 2017-04-21 16:13 91 Kb234
Kat Trap (UK) (1987).zip 2017-04-21 16:13 34 Kb242
Keep Yourself Alive (F) (1987).zip 2017-04-21 16:13 19 Kb246
Kenny Dalglish Soccer Manager (E).cdt 2017-04-21 16:13 57 Kb251
Kenny Dalglish Soccer Manager (UK) (1989).zip 2017-04-21 16:13 25 Kb240
Kenny Dalglish Soccer Match (UK) (1990).zip 2017-04-21 16:13 29 Kb238
Kentilla (UK) (1985).zip 2017-04-21 16:13 23 Kb245
Kentilla (UK) (1985) [a1].zip 2017-04-21 16:13 30 Kb243
Kentucky Racing (E).cdt 2017-04-21 16:13 45 Kb247
Kentucky Racing (UK) (1990).zip 2017-04-21 16:13 24 Kb238
Kentucky Racing (UK) (1990) [f1].zip 2017-04-21 16:13 24 Kb244
Kessia (F) (19xx).zip 2017-04-21 16:13 72 Kb237
Kettle (E).dsk 2017-04-21 16:13 193 Kb233
Kettle (UK) (1986).zip 2017-04-21 16:13 21 Kb248
Kevin Thacker's CPC Guide (UK) (19xx) (PD) (Disk 1 of 2).zip 2017-04-21 16:13 47 Kb232
Kevin Thacker's CPC Guide (UK) (19xx) (PD) (Disk 2 of 2).zip 2017-04-21 16:13 41 Kb238
Key Factor, The (UK) (1985).zip 2017-04-21 16:13 13 Kb240
Kick Off (UK,F,G,S,I) (1990).zip 2017-04-21 16:13 27 Kb243
Kick Off (UK,F,G,S,I) (1990) [a1].zip 2017-04-21 16:13 131 Kb235
Kick Off (UK,F,G,S,I) (1990) [a2].zip 2017-04-21 16:13 31 Kb232
Kick Off 2 (E) - Disk 1A.dsk 2017-04-21 16:13 178 Kb251
Kick Off 2 (E) - Disk 1B.dsk 2017-04-21 16:13 178 Kb245
Kick Off 2 (F) (1990).zip 2017-04-21 16:13 68 Kb239
Kick Off 2 (F) (1990) [a1].zip 2017-04-21 16:13 68 Kb240
Kikstart II (UK) (1988).zip 2017-04-21 16:13 24 Kb245
Kikstart II (UK) (1988) [a1].zip 2017-04-21 16:13 23 Kb247
Killapede (UK) (1986).zip 2017-04-21 16:13 26 Kb237
Killapede (UK) (1986) [a1].zip 2017-04-21 16:13 26 Kb233
Killapede (UK) (1986) [a2].zip 2017-04-21 16:13 32 Kb247
Killapede (UK) (1986) [a3].zip 2017-04-21 16:13 30 Kb269
Killed Until Dead (UK) (1987) (Disk 1 of 2).zip 2017-04-21 16:13 50 Kb229
Killed Until Dead (UK) (1987) (Disk 2 of 2).zip 2017-04-21 16:13 62 Kb234
Killer Ball (UK) (1991).zip 2017-04-21 16:14 103 Kb239
Killer Ball (UK) (1991) [a1].zip 2017-04-21 16:13 103 Kb237
Killer Ball (UK) (1991) [a2].zip 2017-04-21 16:13 76 Kb237
Killer Ball (UK) (1991) [a3].zip 2017-04-21 16:13 96 Kb235
Killer Cobra (E).cdt 2017-04-21 16:14 49 Kb237
Killer Cobra (UK) (1987).zip 2017-04-21 16:14 27 Kb240
Killer Cobra (UK) (1987) [a1].zip 2017-04-21 16:14 27 Kb238
Killer Cobra (UK) (1987) [a2].zip 2017-04-21 16:14 31 Kb234
Killer Gorilla & Knight Lore & Laserwarp & Molecule Man & Zaxx (F).zip 2017-04-21 16:14 82 Kb152
Killer Gorilla (UK) (1984).zip 2017-04-21 16:14 19 Kb241
Killer Gorilla (UK) (1984) [a1].zip 2017-04-21 16:14 19 Kb246
Killer Gorilla (UK) (1984) [a2].zip 2017-04-21 16:14 15 Kb250
Killer Gorilla (UK) (1984) [a3].zip 2017-04-21 16:14 18 Kb240
Killer Gorilla (UK) (1984) [b1].zip 2017-04-21 16:14 19 Kb241
Killer Gorilla (UK) (1984) [b2].zip 2017-04-21 16:14 19 Kb241
Killer Ring (UK) (1987).zip 2017-04-21 16:14 16 Kb245
Killer Ring (UK) (1987) [a1].zip 2017-04-21 16:14 16 Kb245
Kiloroid (UK) (19xx).zip 2017-04-21 16:14 2 Kb237
Kim (F) (1986).zip 2017-04-21 16:14 9 Kb240
Kinetic (UK) (1987).zip 2017-04-21 16:14 35 Kb237
Kinetic (UK) (1987) [a1].zip 2017-04-21 16:14 36 Kb243
Kinetic (UK) (1987) [a2].zip 2017-04-21 16:14 35 Kb247
Kinetik (E).dsk 2017-04-21 16:14 195 Kb252
Kingdom of Hamil (UK) (1987).zip 2017-04-21 16:14 57 Kb241
Kingdoms (UK) (1985).zip 2017-04-21 16:14 5 Kb237
Kit de Telechargement - Telecharge Amstrad CPC (F).dsk 2017-04-21 16:14 217 Kb245
Kit de Telechargement pour Amstrad CPC (F).dsk 2017-04-21 16:14 191 Kb259
Klax & Meynaumede (F) & Nervous Break Down (F) & Skweek.zip 2017-04-21 16:14 97 Kb153
Klax (E).dsk 2017-04-21 16:14 172 Kb243
Klax (UK) (1990) (CPM).zip 2017-04-21 16:14 44 Kb233
Klax (UK) (1990) (CPM) [a1].zip 2017-04-21 16:14 44 Kb249
Klax (UK) (1990) (CPM Version).zip 2017-04-21 16:14 43 Kb232
Klax (UK) (1990) (CPM Version) [a1].zip 2017-04-21 16:14 43 Kb242
Klax (UK) (1990) (Cart).zip 2017-04-21 16:14 41 Kb244
Klax (UK) (1990).zip 2017-04-21 16:14 42 Kb234
Klax (UK) (1990) [a1].zip 2017-04-21 16:14 42 Kb246
Klax (UK) (1990) [h1].zip 2017-04-21 16:14 52 Kb236
Klax (UK) (1990) [h2].zip 2017-04-21 16:14 54 Kb242
Knaves and thou Prisoners (UK) (19xx).zip 2017-04-21 16:14 8 Kb230
Knight Force (F) (1989) (Disk 1 of 2).zip 2017-04-21 16:14 54 Kb236
Knight Force (F) (1989) (Disk 1 of 2) [t1].zip 2017-04-21 16:14 55 Kb231
Knight Force (F) (1989) (Disk 1 of 2) [t2] & Power Drift.zip 2017-04-21 16:14 108 Kb142
Knight Force (F) (1989) (Disk 1 of 2) [t2].zip 2017-04-21 16:14 75 Kb229
Knight Force (F) (1989) (Disk 2 of 2).zip 2017-04-21 16:14 76 Kb238
Knight Force (F) - Disk 1A.dsk 2017-04-21 16:14 456 Kb239
Knight Force (F) - Disk 1B.dsk 2017-04-21 16:14 627 Kb239
Knight Games (E) - Side A.cdt 2017-04-21 16:14 166 Kb246
Knight Games (E) - Side B.cdt 2017-04-21 16:14 142 Kb238
Knight Games (UK) (1986) (Disk 1 of 2).zip 2017-04-21 16:14 88 Kb242
Knight Games (UK) (1986) (Disk 1 of 2) [a1].zip 2017-04-21 16:14 83 Kb233
Knight Games (UK) (1986) (Disk 1 of 2) [a2].zip 2017-04-21 16:14 83 Kb234
Knight Games (UK) (1986) (Disk 1 of 2) [a3].zip 2017-04-21 16:14 103 Kb228
Knight Games (UK) (1986) (Disk 2 of 2).zip 2017-04-21 16:14 94 Kb241
Knight Games (UK) (1986) (Disk 2 of 2) [a1].zip 2017-04-21 16:14 76 Kb236
Knight Games (UK) (1986) (Disk 2 of 2) [a2].zip 2017-04-21 16:14 79 Kb233
Knight Games (UK) (1986) (Disk 2 of 2) [a3].zip 2017-04-21 16:14 109 Kb234
Knight Games (UK) (1986) [f1][t1].zip 2017-04-21 16:14 179 Kb236
Knight Lore (E).cdt 2017-04-21 16:14 42 Kb241
Knight Lore (UK) (1984).zip 2017-04-21 16:14 25 Kb247
Knight Lore (UK) (1984) [a1].zip 2017-04-21 16:14 25 Kb231
Knight Lore (UK) (1984) [a2].zip 2017-04-21 16:14 25 Kb244
Knight Moves (F) (19xx) (Disk 1 of 2).zip 2017-04-21 16:14 60 Kb236
Knight Moves (F) (19xx) (Disk 2 of 2).zip 2017-04-21 16:14 83 Kb239
Knight Orc (E) - Disk 1A.dsk 2017-04-21 16:14 194 Kb238
Knight Orc (E) - Disk 1B.dsk 2017-04-21 16:14 199 Kb237
Knight Orc (UK) (1987) (Disk 1 of 2).zip 2017-04-21 16:14 119 Kb248
Knight Orc (UK) (1987) (Disk 2 of 2).zip 2017-04-21 16:14 110 Kb242
Knight Rider (E).cdt 2017-04-21 16:14 45 Kb243
Knight Rider (UK) (1986).zip 2017-04-21 16:14 20 Kb238
Knight Rider (UK) (1986) [h1].zip 2017-04-21 16:14 32 Kb236
Knight Rider (UK) (1986) [h2].zip 2017-04-21 16:14 21 Kb243
Knight Tyme (E).cdt 2017-04-21 16:14 57 Kb244
Knight Tyme (UK) (1986).zip 2017-04-21 16:14 31 Kb249
Knight Tyme (UK) (1986) [a1].zip 2017-04-21 16:14 31 Kb242
Knight Tyme (UK) (1986) [t1].zip 2017-04-21 16:14 31 Kb234
Knightmare (E).dsk 2017-04-21 16:14 213 Kb255
Knightmare (UK) (1987).zip 2017-04-21 16:14 29 Kb237
Knightmare (UK) (1987) [a1].zip 2017-04-21 16:14 30 Kb236
Knightmare (UK) (1987) [a2].zip 2017-04-21 16:14 30 Kb247
Knightmare (UK) (1987) [t1].zip 2017-04-21 16:14 33 Kb240
Know (G).dsk 2017-04-21 16:14 192 Kb256
Kobayashi Naru (UK) (19xx).zip 2017-04-21 16:14 31 Kb250
Kobayashi Naru (UK) (1987).zip 2017-04-21 16:14 31 Kb253
Kobayashi Naru (UK) (1987) [a1].zip 2017-04-21 16:14 31 Kb239
Kobayashi Naru (UK) (1987) [a2].zip 2017-04-21 16:14 48 Kb261
Kokotoni Wilf (UK) (19xx).zip 2017-04-21 16:14 137 Kb248
Kokotoni Wilf (UK) (19xx) [a1].zip 2017-04-21 16:14 35 Kb247
Kokotoni Wilf (UK) (19xx) [f1][t1].zip 2017-04-21 16:14 37 Kb238
Konami's Golf (UK) (1986).zip 2017-04-21 16:14 24 Kb236
Konami's Golf (UK) (1986) [a1].zip 2017-04-21 16:14 24 Kb239
Konami's Golf (UK) (1986) [a2].zip 2017-04-21 16:14 26 Kb243
Konami Coin-op Hits (UK) (19xx) (Disk 1 of 2).zip 2017-04-21 16:14 50 Kb244
Konami Coin-op Hits (UK) (19xx) (Disk 1 of 2) [a1].zip 2017-04-21 16:14 50 Kb230
Konami Coin-op Hits (UK) (19xx) (Disk 2 of 2).zip 2017-04-21 16:14 65 Kb233
Konami Coin-op Hits (UK) (19xx) (Disk 2 of 2) [a1].zip 2017-04-21 16:14 65 Kb252
Konami Coin-op Hits (UK) (19xx) (Disk 2 of 2) [a2].zip 2017-04-21 16:14 65 Kb232
Kong Strikes Back (UK) (1985).zip 2017-04-21 16:14 21 Kb256
Kong Strikes Back (UK) (1985) [a1].zip 2017-04-21 16:14 21 Kb254
Kong Strikes Back (UK) (1985) [a2].zip 2017-04-21 16:14 23 Kb242
Koronis Rift (E).dsk 2017-04-21 16:14 186 Kb243
Koronis Rift (UK) (1987).zip 2017-04-21 16:14 57 Kb245
Krakout (E).cdt 2017-04-21 16:14 64 Kb254
Krakout (E).dsk 2017-04-21 16:14 171 Kb245
Krakout (UK) (1987).zip 2017-04-21 16:14 31 Kb248
Krakout (UK) (1987) [h1].zip 2017-04-21 16:14 34 Kb245
Kristal (F).dsk 2017-04-21 16:14 191 Kb246
Kristal (UK) (1985).zip 2017-04-21 16:14 16 Kb250
Kristax (UK) (1989).zip 2017-04-21 16:14 9 Kb251
Krypton Factor (UK) (1987) (Disk 1 of 2).zip 2017-04-21 16:14 52 Kb234
Krypton Factor (UK) (1987) (Disk 1 of 2) [a1].zip 2017-04-21 16:14 47 Kb245
Krypton Factor (UK) (1987) (Disk 2 of 2).zip 2017-04-21 16:14 5 Kb239
Krypton Factor (UK) (1987) (Disk 2 of 2) [a1].zip 2017-04-21 16:14 21 Kb242
Kung-Fu (UK) (1986).zip 2017-04-21 16:14 19 Kb243
Kung-Fu Master (E).dsk 2017-04-21 16:14 191 Kb237
Kung-Fu Master (UK) (1986).zip 2017-04-21 16:14 28 Kb254
Kung-Fu Master (UK) (1986) [h1].zip 2017-04-21 16:14 22 Kb244
Kwah (UK) (1987).zip 2017-04-21 16:14 36 Kb231
Kwik Snax (E).cdt 2017-04-21 16:14 65 Kb256
Kwik Snax (UK) (1990).zip 2017-04-21 16:14 22 Kb238
Kwik Snax (UK) (1990) [f1].zip 2017-04-21 16:14 33 Kb251
Kwik Snax (UK) (1990) [h1].zip 2017-04-21 16:14 41 Kb244
Kwik Snax (UK) (1990) [t1].zip 2017-04-21 16:14 33 Kb246
kobayashi Naru (E).cdt 2017-04-21 16:14 74 Kb244
180 Files
-JavaCPC -demo -emu -j-cpc_ani -tools 0-9 A B C D E F G H I J K L M N O P Q R S T U V W X Y Z roms